createdAt,value
2022-07-30T00:01:24.268Z,18.83
2022-07-30T00:04:26.914Z,18.92
2022-07-30T00:07:29.565Z,18.92
2022-07-30T00:10:33.469Z,19.02
2022-07-30T00:13:36.201Z,19.11
2022-07-30T00:16:39.306Z,19.21
2022-07-30T00:19:42.016Z,19.37
2022-07-30T00:22:47.666Z,19.46
2022-07-30T00:25:51.818Z,19.54
2022-07-30T00:28:54.457Z,19.58
2022-07-30T00:31:57.105Z,19.66
2022-07-30T00:34:59.714Z,19.69
2022-07-30T00:38:02.417Z,19.65
2022-07-30T00:41:06.581Z,19.61
2022-07-30T00:44:09.221Z,19.66
2022-07-30T00:47:11.983Z,19.72
2022-07-30T00:50:15.959Z,19.63
2022-07-30T00:53:18.607Z,19.69
2022-07-30T00:56:22.636Z,19.66
2022-07-30T00:59:27.853Z,19.69
2022-07-30T01:02:30.642Z,19.69
2022-07-30T01:05:33.729Z,19.70
2022-07-30T01:08:36.310Z,19.68
2022-07-30T01:11:42.475Z,19.59
2022-07-30T01:14:45.363Z,19.54
2022-07-30T01:17:53.086Z,19.50
2022-07-30T01:21:02.964Z,19.47
2022-07-30T01:24:15.517Z,19.38
2022-07-30T01:27:20.846Z,19.30
2022-07-30T01:30:26.882Z,19.35
2022-07-30T01:33:30.549Z,19.41
2022-07-30T01:36:33.854Z,19.32
2022-07-30T01:39:36.677Z,19.23
2022-07-30T01:42:41.504Z,19.23
2022-07-30T01:45:44.690Z,19.19
2022-07-30T01:48:47.281Z,19.18
2022-07-30T01:51:50.175Z,19.22
2022-07-30T01:54:53.683Z,19.23
2022-07-30T01:57:58.485Z,19.07
2022-07-30T02:01:01.336Z,19.02
2022-07-30T02:04:04.880Z,18.93
2022-07-30T02:07:13.300Z,18.74
2022-07-30T02:10:19.020Z,18.60
2022-07-30T02:13:28.652Z,18.47
2022-07-30T02:16:32.805Z,18.34
2022-07-30T02:19:41.792Z,18.28
2022-07-30T02:22:48.270Z,18.19
2022-07-30T02:25:51.816Z,18.18
2022-07-30T02:28:58.492Z,18.21
2022-07-30T02:32:01.960Z,18.11
2022-07-30T02:35:10.605Z,18.09
2022-07-30T02:38:15.002Z,18.01
2022-07-30T02:41:18.256Z,18.03
2022-07-30T02:44:22.192Z,18.13
2022-07-30T02:47:24.688Z,18.11
2022-07-30T02:50:28.802Z,18.25
2022-07-30T02:53:32.158Z,18.18
2022-07-30T02:56:35.785Z,18.11
2022-07-30T02:59:41.456Z,18.09
2022-07-30T03:02:45.865Z,18.25
2022-07-30T03:05:51.912Z,18.34
2022-07-30T03:08:54.936Z,18.36
2022-07-30T03:11:58.271Z,18.29
2022-07-30T03:15:02.082Z,18.34
2022-07-30T03:18:04.562Z,18.23
2022-07-30T03:21:09.598Z,18.22
2022-07-30T03:24:13.064Z,18.21
2022-07-30T03:27:16.309Z,18.16
2022-07-30T03:30:20.110Z,18.22
2022-07-30T03:33:22.844Z,18.08
2022-07-30T03:36:26.206Z,17.93
2022-07-30T03:39:29.606Z,18.01
2022-07-30T03:42:33.029Z,18.22
2022-07-30T03:45:37.639Z,18.09
2022-07-30T03:48:41.142Z,18.02
2022-07-30T03:51:44.308Z,18.05
2022-07-30T03:54:47.333Z,18.13
2022-07-30T03:57:50.252Z,18.18
2022-07-30T04:00:54.320Z,18.06
2022-07-30T04:03:57.166Z,18.02
2022-07-30T04:07:00.883Z,17.94
2022-07-30T04:10:04.404Z,17.84
2022-07-30T04:13:09.568Z,17.86
2022-07-30T04:16:39.476Z,17.96
2022-07-30T04:19:51.362Z,17.90
2022-07-30T04:22:54.254Z,17.84
2022-07-30T04:25:57.227Z,17.72
2022-07-30T04:29:00.558Z,17.81
2022-07-30T04:32:04.627Z,17.81
2022-07-30T04:35:07.763Z,17.90
2022-07-30T04:38:10.924Z,17.95
2022-07-30T04:41:13.585Z,17.95
2022-07-30T04:44:16.350Z,18.08
2022-07-30T04:47:20.677Z,18.15
2022-07-30T04:50:26.404Z,18.21
2022-07-30T04:53:29.831Z,18.30
2022-07-30T04:56:35.183Z,18.37
2022-07-30T04:59:38.290Z,18.56
2022-07-30T05:02:43.128Z,18.83
2022-07-30T05:05:46.228Z,18.91
2022-07-30T05:08:49.380Z,19.06
2022-07-30T05:11:52.632Z,19.26
2022-07-30T05:14:55.500Z,19.40
2022-07-30T05:17:59.924Z,19.47
2022-07-30T05:21:02.646Z,19.65
2022-07-30T05:24:05.974Z,19.79
2022-07-30T05:27:08.522Z,19.88
2022-07-30T05:30:12.498Z,19.97
2022-07-30T05:33:17.040Z,20.05
2022-07-30T05:36:19.867Z,20.12
2022-07-30T05:39:22.822Z,20.19
2022-07-30T05:42:25.690Z,20.26
2022-07-30T05:45:28.543Z,20.40
2022-07-30T05:48:35.478Z,20.48
2022-07-30T05:51:38.248Z,20.51
2022-07-30T05:54:40.937Z,20.64
2022-07-30T05:57:43.698Z,20.69
2022-07-30T06:00:46.602Z,20.87
2022-07-30T06:03:50.704Z,21.00
2022-07-30T06:06:53.754Z,21.09
2022-07-30T06:10:00.035Z,21.12
2022-07-30T06:13:02.744Z,21.29
2022-07-30T06:16:06.228Z,21.41
2022-07-30T06:19:10.564Z,21.45
2022-07-30T06:22:26.008Z,21.56
2022-07-30T06:25:28.970Z,21.67
2022-07-30T06:28:39.649Z,21.78
2022-07-30T06:31:42.418Z,21.82
2022-07-30T06:34:46.680Z,22.01
2022-07-30T06:37:57.665Z,22.17
2022-07-30T06:41:10.310Z,22.27
2022-07-30T06:44:13.081Z,22.35
2022-07-30T06:47:21.219Z,22.22
2022-07-30T06:50:25.434Z,22.20
2022-07-30T06:53:28.213Z,22.15
2022-07-30T06:56:30.872Z,22.49
2022-07-30T06:59:33.697Z,22.47
2022-07-30T07:02:56.553Z,22.48
2022-07-30T07:06:00.596Z,22.78
2022-07-30T07:09:03.244Z,22.87
2022-07-30T07:12:06.569Z,22.89
2022-07-30T07:15:10.274Z,23.07
2022-07-30T07:18:13.653Z,23.12
2022-07-30T07:21:17.777Z,23.26
2022-07-30T07:24:20.455Z,23.32
2022-07-30T07:27:23.527Z,23.63
2022-07-30T07:30:26.127Z,23.72
2022-07-30T07:33:28.799Z,23.80
2022-07-30T07:36:34.499Z,23.55
2022-07-30T07:39:42.038Z,23.43
2022-07-30T07:42:45.122Z,23.59
2022-07-30T07:45:48.050Z,23.70
2022-07-30T07:48:50.898Z,23.83
2022-07-30T07:51:54.980Z,24.13
2022-07-30T07:54:57.800Z,24.10
2022-07-30T07:58:01.927Z,24.07
2022-07-30T08:01:05.149Z,24.08
2022-07-30T08:04:10.175Z,24.06
2022-07-30T08:07:14.993Z,24.56
2022-07-30T08:10:18.811Z,24.19
2022-07-30T08:13:48.771Z,24.66
2022-07-30T08:16:44.504Z,24.42
2022-07-30T08:19:47.425Z,24.87
2022-07-30T08:22:51.522Z,25.08
2022-07-30T08:25:54.297Z,25.27
2022-07-30T08:28:57.130Z,25.08
2022-07-30T08:31:59.902Z,24.53
2022-07-30T08:35:02.726Z,24.67
2022-07-30T08:38:06.769Z,25.07
2022-07-30T08:41:10.146Z,25.05
2022-07-30T08:44:13.294Z,24.88
2022-07-30T08:47:18.354Z,25.35
2022-07-30T08:50:21.765Z,25.55
2022-07-30T08:53:27.328Z,25.34
2022-07-30T08:56:30.358Z,25.17
2022-07-30T08:59:59.124Z,25.43
2022-07-30T09:02:57.196Z,26.20
2022-07-30T09:05:59.857Z,26.09
2022-07-30T09:09:05.024Z,26.37
2022-07-30T09:12:38.698Z,26.20
2022-07-30T09:15:41.329Z,27.43
2022-07-30T09:18:44.460Z,26.83
2022-07-30T09:21:57.416Z,26.34
2022-07-30T09:25:01.638Z,27.00
2022-07-30T09:28:15.794Z,27.19
2022-07-30T09:31:19.814Z,26.36
2022-07-30T09:34:30.191Z,26.74
2022-07-30T09:37:32.946Z,27.56
2022-07-30T09:40:36.803Z,27.57
2022-07-30T09:43:47.994Z,27.36
2022-07-30T09:46:51.951Z,27.42
2022-07-30T09:50:07.530Z,26.58
2022-07-30T09:53:11.898Z,26.04
2022-07-30T09:56:30.349Z,26.40
2022-07-30T09:59:35.055Z,27.40
2022-07-30T10:02:38.321Z,27.77
2022-07-30T10:05:51.262Z,26.66
2022-07-30T10:08:55.678Z,26.55
2022-07-30T10:12:02.609Z,27.10
2022-07-30T10:15:06.224Z,27.92
2022-07-30T10:18:10.302Z,27.58
2022-07-30T10:21:16.909Z,26.19
2022-07-30T10:24:46.592Z,26.27
2022-07-30T10:27:44.840Z,26.79
2022-07-30T10:30:50.637Z,27.96
2022-07-30T10:33:54.304Z,27.31
2022-07-30T10:36:59.042Z,27.52
2022-07-30T10:40:07.007Z,27.66
2022-07-30T10:43:31.828Z,27.67
2022-07-30T10:46:45.886Z,28.07
2022-07-30T10:50:10.570Z,28.86
2022-07-30T10:53:33.412Z,29.77
2022-07-30T10:56:38.922Z,29.64
2022-07-30T11:00:15.405Z,29.42
2022-07-30T11:03:22.070Z,29.97
2022-07-30T11:06:29.456Z,29.68
2022-07-30T11:09:40.976Z,29.67
2022-07-30T11:12:55.344Z,28.66
2022-07-30T11:16:01.597Z,29.47
2022-07-30T11:22:38.730Z,30.42
2022-07-30T11:25:51.657Z,30.01
2022-07-30T11:28:57.440Z,28.95
2022-07-30T11:32:06.588Z,27.66
2022-07-30T11:35:15.866Z,27.50
2022-07-30T11:38:19.763Z,27.87
2022-07-30T11:41:25.986Z,29.06
2022-07-30T11:44:31.682Z,29.50
2022-07-30T11:47:36.118Z,28.76
2022-07-30T11:50:38.841Z,28.38
2022-07-30T11:53:41.304Z,29.14
2022-07-30T11:56:51.505Z,29.73
2022-07-30T11:59:55.823Z,29.17
2022-07-30T12:03:03.898Z,28.73
2022-07-30T12:06:09.257Z,28.74
2022-07-30T12:09:11.957Z,29.28
2022-07-30T12:12:23.526Z,29.19
2022-07-30T12:15:30.814Z,29.73
2022-07-30T12:18:34.915Z,29.14
2022-07-30T12:21:37.968Z,28.54
2022-07-30T12:24:40.649Z,28.88
2022-07-30T12:27:51.974Z,28.97
2022-07-30T12:30:55.402Z,30.11
2022-07-30T12:34:00.625Z,30.25
2022-07-30T12:37:10.697Z,29.06
2022-07-30T12:40:15.386Z,30.05
2022-07-30T12:43:18.272Z,29.34
2022-07-30T12:46:21.887Z,29.52
2022-07-30T12:49:39.542Z,30.99
2022-07-30T12:52:53.213Z,31.45
2022-07-30T12:55:55.881Z,33.82
2022-07-30T12:59:00.027Z,34.03
2022-07-30T13:02:03.720Z,30.77
2022-07-30T13:05:10.839Z,30.87
2022-07-30T13:08:14.690Z,37.53
2022-07-30T13:11:17.870Z,40.32
2022-07-30T13:14:23.655Z,41.04
2022-07-30T13:17:29.377Z,40.47
2022-07-30T13:20:33.259Z,42.44
2022-07-30T13:23:36.794Z,43.77
2022-07-30T13:26:39.639Z,43.35
2022-07-30T13:29:42.244Z,44.31
2022-07-30T13:32:44.815Z,46.64
2022-07-30T13:35:49.181Z,46.04
2022-07-30T13:38:52.308Z,43.33
2022-07-30T13:41:55.177Z,41.37
2022-07-30T13:44:57.848Z,37.91
2022-07-30T13:48:00.450Z,36.80
2022-07-30T13:51:05.436Z,44.09
2022-07-30T13:54:08.413Z,43.23
2022-07-30T13:57:13.284Z,44.33
2022-07-30T14:00:16.818Z,46.23
2022-07-30T14:03:19.434Z,45.96
2022-07-30T14:06:25.319Z,45.25
2022-07-30T14:09:28.092Z,45.33
2022-07-30T14:12:30.792Z,44.06
2022-07-30T14:15:33.759Z,47.22
2022-07-30T14:18:36.404Z,42.28
2022-07-30T14:21:40.802Z,46.38
2022-07-30T14:24:43.534Z,45.31
2022-07-30T14:27:46.528Z,47.29
2022-07-30T14:30:51.006Z,46.40
2022-07-30T14:33:53.557Z,50.56
2022-07-30T14:36:57.492Z,51.51
2022-07-30T14:40:00.154Z,48.38
2022-07-30T14:43:02.834Z,46.33
2022-07-30T14:46:05.367Z,39.11
2022-07-30T14:49:08.985Z,39.93
2022-07-30T14:52:13.022Z,34.23
2022-07-30T14:55:15.968Z,36.95
2022-07-30T14:58:18.669Z,43.45
2022-07-30T15:01:21.460Z,46.08
2022-07-30T15:04:24.543Z,44.98
2022-07-30T15:07:29.516Z,43.50
2022-07-30T15:10:35.235Z,41.75
2022-07-30T15:13:49.579Z,38.86
2022-07-30T15:16:53.290Z,36.89
2022-07-30T15:19:56.154Z,37.82
2022-07-30T15:23:00.213Z,40.63
2022-07-30T15:26:02.826Z,44.02
2022-07-30T15:29:05.357Z,44.39
2022-07-30T15:32:08.471Z,42.74
2022-07-30T15:35:13.885Z,43.07
2022-07-30T15:38:18.759Z,39.55
2022-07-30T15:41:21.566Z,41.33
2022-07-30T15:44:25.257Z,44.72
2022-07-30T15:47:28.987Z,44.39
2022-07-30T15:50:31.798Z,36.48
2022-07-30T15:53:35.753Z,36.89
2022-07-30T15:56:38.362Z,42.25
2022-07-30T15:59:40.943Z,37.85
2022-07-30T16:02:44.033Z,35.45
2022-07-30T16:05:51.744Z,35.05
2022-07-30T16:08:56.551Z,34.82
2022-07-30T16:11:59.811Z,34.02
2022-07-30T16:15:02.585Z,38.29
2022-07-30T16:18:06.344Z,42.60
2022-07-30T16:21:14.069Z,42.00
2022-07-30T16:24:18.196Z,40.26
2022-07-30T16:27:20.885Z,34.74
2022-07-30T16:30:27.325Z,34.86
2022-07-30T16:33:30.481Z,36.99
2022-07-30T16:36:33.194Z,39.54
2022-07-30T16:39:37.093Z,39.24
2022-07-30T16:42:39.714Z,38.14
2022-07-30T16:45:43.611Z,42.67
2022-07-30T16:48:46.225Z,40.55
2022-07-30T16:51:54.002Z,40.85
2022-07-30T16:54:57.987Z,39.49
2022-07-30T16:58:00.618Z,38.77
2022-07-30T17:01:03.384Z,40.16
2022-07-30T17:04:06.093Z,36.86
2022-07-30T17:07:14.992Z,40.39
2022-07-30T17:10:25.612Z,43.20
2022-07-30T17:13:29.077Z,38.30
2022-07-30T17:16:32.579Z,34.88
2022-07-30T17:19:35.228Z,32.71
2022-07-30T17:22:41.347Z,31.69
2022-07-30T17:25:47.050Z,31.20
2022-07-30T17:28:49.712Z,30.79
2022-07-30T17:31:52.514Z,30.41
2022-07-30T17:34:58.308Z,29.96
2022-07-30T17:38:00.918Z,29.53
2022-07-30T17:41:04.903Z,28.96
2022-07-30T17:44:08.735Z,28.65
2022-07-30T17:47:14.642Z,28.40
2022-07-30T17:50:18.938Z,28.42
2022-07-30T17:53:21.516Z,28.35
2022-07-30T17:56:27.181Z,28.42
2022-07-30T17:59:30.119Z,28.42
2022-07-30T18:02:33.203Z,28.36
2022-07-30T18:05:35.741Z,28.25
2022-07-30T18:08:38.486Z,28.23
2022-07-30T18:11:42.448Z,28.17
2022-07-30T18:14:45.131Z,28.11
2022-07-30T18:17:47.997Z,28.05
2022-07-30T18:20:50.870Z,27.89
2022-07-30T18:23:53.510Z,27.78
2022-07-30T18:26:57.336Z,27.65
2022-07-30T18:29:59.957Z,27.55
2022-07-30T18:33:02.429Z,27.46
2022-07-30T18:36:05.265Z,27.22
2022-07-30T18:39:07.934Z,27.00
2022-07-30T18:42:11.774Z,26.89
2022-07-30T18:45:14.663Z,26.65
2022-07-30T18:48:17.275Z,26.44
2022-07-30T18:51:19.750Z,26.29
2022-07-30T18:54:23.661Z,26.15
2022-07-30T18:57:27.866Z,25.98
2022-07-30T19:00:35.256Z,25.78
2022-07-30T19:03:38.540Z,25.58
2022-07-30T19:06:41.196Z,25.38
2022-07-30T19:09:45.161Z,25.18
2022-07-30T19:12:49.058Z,25.01
2022-07-30T19:15:52.197Z,24.90
2022-07-30T19:18:54.883Z,24.58
2022-07-30T19:21:58.023Z,24.40
2022-07-30T19:25:01.057Z,24.24
2022-07-30T19:28:06.358Z,24.16
2022-07-30T19:31:09.026Z,24.13
2022-07-30T19:34:11.857Z,24.02
2022-07-30T19:37:14.438Z,23.95
2022-07-30T19:40:18.815Z,23.87
2022-07-30T19:43:24.220Z,23.87
2022-07-30T19:46:27.713Z,23.89
2022-07-30T19:49:32.373Z,23.79
2022-07-30T19:52:37.528Z,23.71
2022-07-30T19:55:41.239Z,23.62
2022-07-30T19:58:46.165Z,23.51
2022-07-30T20:01:51.914Z,23.39
2022-07-30T20:04:55.025Z,23.33
2022-07-30T20:07:58.804Z,23.10
2022-07-30T20:11:02.445Z,23.02
2022-07-30T20:14:07.410Z,22.90
2022-07-30T20:17:10.062Z,22.79
2022-07-30T20:20:13.664Z,22.60
2022-07-30T20:23:16.290Z,22.49
2022-07-30T20:26:19.278Z,22.42
2022-07-30T20:29:23.695Z,22.31
2022-07-30T20:32:27.095Z,22.18
2022-07-30T20:35:29.904Z,22.11
2022-07-30T20:38:33.717Z,22.09
2022-07-30T20:41:38.677Z,21.94
2022-07-30T20:44:50.593Z,21.81
2022-07-30T20:47:56.412Z,21.66
2022-07-30T20:50:59.374Z,21.69
2022-07-30T20:54:03.573Z,21.68
2022-07-30T20:57:07.433Z,21.51
2022-07-30T21:00:20.138Z,21.36
2022-07-30T21:03:22.984Z,21.33
2022-07-30T21:06:26.307Z,21.28
2022-07-30T21:09:29.991Z,21.31
2022-07-30T21:12:53.360Z,21.33
2022-07-30T21:16:15.689Z,21.21
2022-07-30T21:19:19.310Z,21.17
2022-07-30T21:22:25.442Z,21.10
2022-07-30T21:25:32.480Z,21.08
2022-07-30T21:28:36.317Z,21.02
2022-07-30T21:32:01.805Z,20.99
2022-07-30T21:35:08.256Z,20.92
2022-07-30T21:38:11.488Z,20.93
2022-07-30T21:41:15.090Z,20.95
2022-07-30T21:44:18.286Z,21.00
2022-07-30T21:47:22.365Z,21.01
2022-07-30T21:50:25.004Z,20.97
2022-07-30T21:53:44.675Z,20.99
2022-07-30T21:56:48.566Z,20.99
2022-07-30T21:59:51.514Z,21.04
2022-07-30T22:02:55.802Z,21.05
2022-07-30T22:06:00.282Z,20.98
2022-07-30T22:09:18.248Z,20.85
2022-07-30T22:12:29.066Z,20.76
2022-07-30T22:15:34.354Z,20.70
2022-07-30T22:18:38.303Z,20.71
2022-07-30T22:21:41.896Z,20.74
2022-07-30T22:24:44.753Z,20.76
2022-07-30T22:27:56.067Z,20.77
2022-07-30T22:30:59.179Z,20.87
2022-07-30T22:34:03.313Z,21.01
2022-07-30T22:37:16.357Z,21.01
2022-07-30T22:40:21.090Z,21.04
2022-07-30T22:43:33.290Z,21.11
2022-07-30T22:46:56.473Z,21.16
2022-07-30T22:50:00.749Z,21.19
2022-07-30T22:53:23.628Z,21.21
2022-07-30T22:56:26.998Z,21.24
2022-07-30T22:59:58.574Z,21.16
2022-07-30T23:02:52.450Z,21.07
2022-07-30T23:05:57.202Z,21.11
2022-07-30T23:09:00.194Z,21.03
2022-07-30T23:12:03.500Z,20.95
2022-07-30T23:15:07.484Z,20.81
2022-07-30T23:18:10.122Z,20.65
2022-07-30T23:21:15.075Z,20.59
2022-07-30T23:24:17.964Z,20.45
2022-07-30T23:27:21.271Z,20.34
2022-07-30T23:30:25.604Z,20.21
2022-07-30T23:33:34.752Z,20.12
2022-07-30T23:36:38.879Z,20.02
2022-07-30T23:39:41.658Z,19.85
2022-07-30T23:42:44.498Z,19.79
2022-07-30T23:45:47.186Z,19.73
2022-07-30T23:48:49.861Z,19.61
2022-07-30T23:51:54.073Z,19.50
2022-07-30T23:54:56.682Z,19.47
2022-07-30T23:58:00.469Z,19.45
